createdAt,value
2022-10-28T00:01:17.428Z,99.90
2022-10-28T00:03:48.262Z,99.90
2022-10-28T00:06:25.106Z,99.90
2022-10-28T00:08:52.026Z,99.90
2022-10-28T00:11:26.206Z,99.90
2022-10-28T00:13:55.541Z,99.90
2022-10-28T00:16:27.652Z,99.90
2022-10-28T00:18:54.886Z,99.90
2022-10-28T00:21:27.870Z,99.90
2022-10-28T00:23:55.071Z,99.90
2022-10-28T00:26:25.767Z,99.90
2022-10-28T00:28:59.392Z,99.90
2022-10-28T00:31:29.677Z,99.90
2022-10-28T00:33:58.925Z,99.90
2022-10-28T00:36:29.086Z,99.90
2022-10-28T00:38:56.872Z,99.90
2022-10-28T00:41:37.322Z,99.90
2022-10-28T00:44:43.320Z,99.90
2022-10-28T00:47:37.430Z,99.90
2022-10-28T00:50:27.782Z,99.90
2022-10-28T00:53:02.791Z,99.90
2022-10-28T00:55:31.525Z,99.90
2022-10-28T00:58:00.865Z,99.90
2022-10-28T01:00:27.863Z,99.90
2022-10-28T01:02:55.393Z,99.90
2022-10-28T01:05:28.718Z,99.90
2022-10-28T01:08:00.566Z,99.90
2022-10-28T01:11:07.364Z,99.90
2022-10-28T01:13:52.449Z,99.90
2022-10-28T01:17:10.432Z,99.90
2022-10-28T01:20:10.086Z,99.90
2022-10-28T01:22:57.137Z,99.90
2022-10-28T01:26:19.732Z,99.90
2022-10-28T01:29:04.338Z,99.90
2022-10-28T01:32:00.854Z,99.90
2022-10-28T01:35:19.470Z,99.90
2022-10-28T01:38:01.781Z,99.90
2022-10-28T01:40:40.718Z,99.90
2022-10-28T01:43:37.140Z,99.90
2022-10-28T01:46:24.853Z,99.90
2022-10-28T01:48:59.071Z,99.90
2022-10-28T01:51:35.535Z,99.90
2022-10-28T01:54:07.722Z,99.90
2022-10-28T01:56:41.417Z,99.90
2022-10-28T01:59:17.574Z,99.90
2022-10-28T02:01:44.589Z,99.90
2022-10-28T02:04:11.452Z,99.90
2022-10-28T02:06:41.346Z,99.90
2022-10-28T02:09:40.234Z,99.90
2022-10-28T02:12:32.495Z,99.90
2022-10-28T02:15:33.762Z,99.90
2022-10-28T02:18:30.154Z,99.90
2022-10-28T02:21:10.323Z,99.90
2022-10-28T02:24:00.284Z,99.90
2022-10-28T02:26:37.143Z,99.90
2022-10-28T02:29:23.645Z,99.90
2022-10-28T02:31:57.534Z,99.90
2022-10-28T02:34:32.306Z,99.90
2022-10-28T02:37:05.063Z,99.90
2022-10-28T02:39:40.276Z,99.90
2022-10-28T02:42:28.421Z,99.90
2022-10-28T02:45:06.235Z,99.90
2022-10-28T02:47:37.359Z,99.90
2022-10-28T02:50:12.969Z,99.90
2022-10-28T02:52:44.291Z,99.90
2022-10-28T02:55:14.370Z,99.90
2022-10-28T02:57:44.822Z,99.90
2022-10-28T03:00:18.448Z,99.90
2022-10-28T03:02:46.123Z,99.90
2022-10-28T03:05:14.182Z,99.90
2022-10-28T03:07:41.679Z,99.90
2022-10-28T03:10:09.457Z,99.90
2022-10-28T03:12:36.222Z,99.90
2022-10-28T03:15:03.711Z,99.90
2022-10-28T03:17:30.890Z,99.90
2022-10-28T03:19:57.679Z,99.90
2022-10-28T03:22:24.390Z,99.90
2022-10-28T03:24:51.139Z,99.90
2022-10-28T03:27:17.856Z,99.90
2022-10-28T03:29:45.986Z,99.90
2022-10-28T03:32:13.747Z,99.90
2022-10-28T03:34:40.597Z,99.90
2022-10-28T03:37:07.404Z,99.90
2022-10-28T03:39:34.130Z,99.90
2022-10-28T03:42:00.964Z,99.90
2022-10-28T03:44:27.744Z,99.90
2022-10-28T03:46:54.473Z,99.90
2022-10-28T03:49:21.253Z,99.90
2022-10-28T03:51:48.040Z,99.90
2022-10-28T03:54:14.888Z,99.90
2022-10-28T03:56:41.679Z,99.90
2022-10-28T03:59:10.043Z,99.90
2022-10-28T04:01:36.900Z,99.90
2022-10-28T04:04:04.137Z,99.90
2022-10-28T04:06:30.847Z,99.90
2022-10-28T04:08:57.784Z,99.90
2022-10-28T04:11:24.507Z,99.90
2022-10-28T04:13:51.370Z,99.90
2022-10-28T04:16:18.105Z,99.90
2022-10-28T04:18:44.798Z,99.90
2022-10-28T04:21:11.591Z,99.90
2022-10-28T04:23:38.304Z,99.90
2022-10-28T04:26:05.378Z,99.90
2022-10-28T04:28:32.838Z,99.90
2022-10-28T04:30:59.719Z,99.90
2022-10-28T04:33:26.447Z,99.90
2022-10-28T04:35:53.125Z,99.90
2022-10-28T04:38:19.959Z,99.90
2022-10-28T04:40:50.248Z,99.90
2022-10-28T04:43:16.938Z,99.90
2022-10-28T04:45:47.306Z,99.90
2022-10-28T04:48:14.290Z,99.90
2022-10-28T04:50:41.675Z,99.90
2022-10-28T04:53:08.416Z,99.90
2022-10-28T04:55:35.147Z,99.90
2022-10-28T04:58:02.203Z,99.90
2022-10-28T05:00:30.520Z,99.90
2022-10-28T05:03:01.516Z,99.90
2022-10-28T05:05:28.236Z,99.90
2022-10-28T05:07:55.388Z,99.90
2022-10-28T05:10:22.713Z,99.90
2022-10-28T05:12:49.475Z,99.90
2022-10-28T05:15:16.353Z,99.90
2022-10-28T05:17:47.301Z,99.90
2022-10-28T05:20:17.402Z,99.90
2022-10-28T05:22:53.896Z,99.90
2022-10-28T05:25:22.344Z,99.90
2022-10-28T05:27:49.364Z,99.90
2022-10-28T05:30:16.457Z,99.90
2022-10-28T05:32:43.183Z,99.90
2022-10-28T05:35:10.819Z,99.90
2022-10-28T05:37:37.769Z,99.90
2022-10-28T05:40:05.555Z,99.90
2022-10-28T05:42:32.705Z,99.90
2022-10-28T05:44:59.423Z,99.90
2022-10-28T05:47:26.106Z,99.90
2022-10-28T05:49:52.804Z,99.90
2022-10-28T05:52:19.604Z,99.90
2022-10-28T05:54:46.327Z,99.90
2022-10-28T05:57:13.082Z,99.90
2022-10-28T05:59:39.863Z,99.90
2022-10-28T06:02:06.669Z,99.90
2022-10-28T06:04:33.443Z,99.90
2022-10-28T06:07:00.188Z,99.90
2022-10-28T06:09:28.962Z,99.90
2022-10-28T06:11:54.156Z,99.90
2022-10-28T06:14:20.975Z,99.90
2022-10-28T06:16:47.758Z,99.90
2022-10-28T06:19:14.443Z,99.90
2022-10-28T06:21:41.565Z,99.90
2022-10-28T06:24:12.127Z,99.90
2022-10-28T06:26:39.473Z,99.90
2022-10-28T06:29:11.418Z,99.90
2022-10-28T06:31:41.452Z,99.90
2022-10-28T06:34:11.807Z,99.90
2022-10-28T06:36:38.758Z,99.90
2022-10-28T06:39:05.854Z,99.90
2022-10-28T06:41:33.350Z,99.90
2022-10-28T06:44:00.399Z,99.90
2022-10-28T06:46:27.624Z,99.90
2022-10-28T06:48:56.770Z,99.90
2022-10-28T06:51:24.347Z,99.90
2022-10-28T06:53:52.119Z,99.90
2022-10-28T06:56:19.440Z,99.90
2022-10-28T06:58:53.419Z,99.90
2022-10-28T07:01:22.085Z,99.90
2022-10-28T07:03:49.043Z,99.90
2022-10-28T07:06:16.844Z,99.90
2022-10-28T07:08:43.573Z,99.90
2022-10-28T07:11:10.290Z,99.90
2022-10-28T07:13:37.008Z,99.90
2022-10-28T07:16:05.137Z,99.90
2022-10-28T07:18:32.052Z,99.90
2022-10-28T07:21:00.735Z,99.90
2022-10-28T07:23:28.471Z,99.90
2022-10-28T07:25:56.848Z,99.90
2022-10-28T07:28:25.269Z,99.90
2022-10-28T07:30:52.563Z,99.90
2022-10-28T07:33:19.927Z,99.90
2022-10-28T07:35:46.685Z,99.90
2022-10-28T07:38:13.401Z,99.90
2022-10-28T07:40:40.325Z,99.90
2022-10-28T07:43:07.052Z,99.90
2022-10-28T07:45:35.905Z,99.90
2022-10-28T07:48:03.651Z,99.90
2022-10-28T07:50:30.665Z,99.90
2022-10-28T07:52:57.469Z,99.90
2022-10-28T07:55:26.046Z,99.90
2022-10-28T07:57:53.129Z,99.90
2022-10-28T08:00:20.205Z,99.90
2022-10-28T08:02:46.913Z,99.90
2022-10-28T08:05:13.674Z,99.90
2022-10-28T08:07:40.375Z,99.90
2022-10-28T08:10:07.924Z,99.90
2022-10-28T08:12:34.753Z,99.90
2022-10-28T08:15:02.572Z,99.90
2022-10-28T08:17:29.461Z,99.90
2022-10-28T08:19:56.208Z,99.90
2022-10-28T08:22:23.342Z,99.90
2022-10-28T08:24:50.491Z,99.90
2022-10-28T08:27:17.236Z,99.90
2022-10-28T08:29:43.942Z,99.90
2022-10-28T08:32:10.687Z,99.90
2022-10-28T08:34:40.770Z,99.90
2022-10-28T08:37:10.377Z,99.90
2022-10-28T08:39:37.203Z,99.90
2022-10-28T08:42:35.400Z,99.90
2022-10-28T08:45:29.945Z,99.90
2022-10-28T08:48:15.384Z,99.90
2022-10-28T08:50:59.289Z,99.90
2022-10-28T08:53:39.158Z,99.90
2022-10-28T08:56:14.858Z,99.90
2022-10-28T08:58:44.988Z,99.90
2022-10-28T09:01:35.232Z,99.90
2022-10-28T09:04:13.208Z,99.90
2022-10-28T09:06:39.973Z,99.90
2022-10-28T09:09:06.771Z,99.90
2022-10-28T09:11:50.541Z,99.90
2022-10-28T09:14:56.077Z,99.90
2022-10-28T09:17:48.577Z,99.90
2022-10-28T09:20:43.867Z,99.90
2022-10-28T09:23:27.076Z,99.90
2022-10-28T09:26:29.010Z,99.90
2022-10-28T09:29:43.272Z,99.90
2022-10-28T09:32:54.268Z,99.90
2022-10-28T09:35:28.043Z,99.90
2022-10-28T09:38:26.586Z,99.90
2022-10-28T09:41:03.637Z,99.90
2022-10-28T09:43:35.217Z,99.90
2022-10-28T09:46:18.995Z,99.90
2022-10-28T09:48:55.610Z,99.00
2022-10-28T09:51:43.269Z,98.60
2022-10-28T09:54:12.721Z,98.10
2022-10-28T09:56:40.732Z,95.90
2022-10-28T09:59:13.209Z,94.30
2022-10-28T10:01:42.666Z,94.50
2022-10-28T10:04:23.076Z,93.10
2022-10-28T10:07:11.773Z,90.50
2022-10-28T10:09:39.634Z,90.10
2022-10-28T10:12:11.876Z,85.70
2022-10-28T10:14:56.395Z,81.60
2022-10-28T10:17:32.342Z,80.80
2022-10-28T10:20:00.468Z,81.50
2022-10-28T10:22:32.541Z,79.60
2022-10-28T10:24:59.376Z,79.50
2022-10-28T10:27:28.785Z,77.90
2022-10-28T10:29:57.902Z,78.10
2022-10-28T10:32:32.380Z,77.10
2022-10-28T10:35:26.075Z,75.50
2022-10-28T10:37:56.731Z,75.00
2022-10-28T10:40:34.501Z,74.10
2022-10-28T10:43:29.800Z,73.20
2022-10-28T10:46:03.737Z,73.80
2022-10-28T10:48:38.115Z,73.50
2022-10-28T10:51:27.549Z,73.90
2022-10-28T10:54:01.680Z,74.70
2022-10-28T10:56:33.431Z,71.00
2022-10-28T10:59:05.559Z,69.90
2022-10-28T11:01:39.929Z,71.10
2022-10-28T11:04:15.152Z,68.90
2022-10-28T11:06:49.141Z,67.60
2022-10-28T11:09:39.623Z,66.40
2022-10-28T11:12:36.808Z,68.00
2022-10-28T11:15:21.445Z,69.30
2022-10-28T11:18:11.360Z,69.70
2022-10-28T11:21:00.855Z,70.90
2022-10-28T11:23:45.981Z,70.60
2022-10-28T11:26:17.031Z,71.50
2022-10-28T11:29:09.839Z,71.30
2022-10-28T11:32:10.639Z,71.30
2022-10-28T11:35:07.867Z,70.20
2022-10-28T11:38:10.129Z,71.10
2022-10-28T11:41:06.990Z,72.10
2022-10-28T11:43:55.815Z,71.50
2022-10-28T11:46:58.426Z,72.50
2022-10-28T11:50:01.424Z,71.60
2022-10-28T11:53:24.442Z,72.20
2022-10-28T11:56:26.231Z,72.10
2022-10-28T11:59:30.718Z,70.80
2022-10-28T12:02:58.470Z,71.40
2022-10-28T12:06:12.016Z,69.10
2022-10-28T12:12:09.930Z,67.60
2022-10-28T12:15:16.418Z,67.70
2022-10-28T12:18:07.016Z,64.70
2022-10-28T12:20:49.619Z,62.50
2022-10-28T12:23:23.339Z,61.70
2022-10-28T12:26:02.545Z,60.90
2022-10-28T12:29:00.726Z,59.30
2022-10-28T12:31:39.701Z,59.60
2022-10-28T12:34:20.113Z,59.20
2022-10-28T12:37:23.320Z,59.10
2022-10-28T12:40:32.779Z,57.10
2022-10-28T12:43:24.101Z,56.30
2022-10-28T12:45:56.148Z,57.00
2022-10-28T12:48:35.511Z,56.70
2022-10-28T12:51:26.973Z,56.80
2022-10-28T12:54:07.913Z,56.90
2022-10-28T12:57:14.546Z,55.90
2022-10-28T13:00:04.190Z,54.80
2022-10-28T13:03:12.439Z,54.20
2022-10-28T13:05:49.726Z,54.00
2022-10-28T13:08:35.159Z,54.40
2022-10-28T13:11:19.853Z,56.20
2022-10-28T13:13:58.159Z,58.30
2022-10-28T13:16:42.814Z,59.70
2022-10-28T13:19:16.792Z,61.70
2022-10-28T13:22:47.453Z,61.60
2022-10-28T13:25:38.298Z,63.20
2022-10-28T13:28:05.646Z,65.00
2022-10-28T13:30:32.418Z,65.40
2022-10-28T13:33:08.353Z,66.50
2022-10-28T13:35:37.021Z,65.20
2022-10-28T13:38:12.619Z,65.10
2022-10-28T13:40:39.224Z,64.30
2022-10-28T13:43:41.063Z,64.10
2022-10-28T13:46:07.797Z,64.60
2022-10-28T13:48:43.151Z,63.30
2022-10-28T13:51:09.780Z,62.30
2022-10-28T13:53:56.788Z,60.00
2022-10-28T13:56:27.952Z,56.30
2022-10-28T13:59:30.511Z,53.20
2022-10-28T14:02:28.397Z,48.40
2022-10-28T14:05:16.446Z,45.50
2022-10-28T14:08:00.460Z,42.20
2022-10-28T14:10:33.685Z,41.20
2022-10-28T14:13:06.219Z,43.10
2022-10-28T14:15:39.120Z,41.40
2022-10-28T14:18:37.283Z,39.50
2022-10-28T14:21:01.597Z,41.60
2022-10-28T14:23:28.561Z,44.20
2022-10-28T14:25:55.941Z,46.40
2022-10-28T14:28:31.030Z,50.00
2022-10-28T14:31:12.581Z,51.80
2022-10-28T14:34:12.067Z,54.00
2022-10-28T14:36:50.279Z,55.50
2022-10-28T14:39:39.911Z,57.90
2022-10-28T14:43:01.737Z,59.30
2022-10-28T14:45:49.298Z,60.30
2022-10-28T14:49:02.910Z,62.00
2022-10-28T14:51:44.313Z,62.80
2022-10-28T14:54:50.801Z,64.60
2022-10-28T14:57:22.673Z,64.80
2022-10-28T14:59:51.549Z,66.00
2022-10-28T15:02:24.061Z,65.80
2022-10-28T15:05:11.871Z,67.00
2022-10-28T15:07:41.023Z,67.80
2022-10-28T15:10:21.871Z,68.80
2022-10-28T15:12:50.072Z,70.40
2022-10-28T15:15:21.452Z,71.90
2022-10-28T15:17:49.343Z,73.20
2022-10-28T15:20:33.603Z,74.90
2022-10-28T15:23:23.242Z,76.20
2022-10-28T15:26:14.377Z,77.80
2022-10-28T15:28:42.804Z,80.20
2022-10-28T15:31:09.751Z,82.20
2022-10-28T15:33:42.150Z,84.30
2022-10-28T15:36:18.641Z,86.20
2022-10-28T15:38:49.623Z,89.00
2022-10-28T15:41:41.861Z,91.00
2022-10-28T15:44:26.025Z,92.40
2022-10-28T15:46:54.602Z,93.80
2022-10-28T15:49:40.314Z,95.30
2022-10-28T15:52:22.830Z,97.20
2022-10-28T15:55:19.314Z,99.20
2022-10-28T15:57:59.395Z,99.90
2022-10-28T16:00:32.401Z,99.90
2022-10-28T16:03:48.368Z,99.90
2022-10-28T16:06:31.597Z,99.90
2022-10-28T16:09:24.356Z,99.90
2022-10-28T16:11:58.542Z,99.90
2022-10-28T16:14:39.072Z,99.90
2022-10-28T16:17:12.650Z,99.90
2022-10-28T16:19:46.500Z,99.90
2022-10-28T16:22:14.442Z,99.90
2022-10-28T16:24:42.225Z,99.90
2022-10-28T16:27:23.704Z,99.90
2022-10-28T16:29:50.949Z,99.90
2022-10-28T16:32:27.008Z,99.90
2022-10-28T16:34:53.782Z,99.90
2022-10-28T16:37:27.935Z,99.90
2022-10-28T16:39:55.766Z,99.90
2022-10-28T16:42:22.781Z,99.90
2022-10-28T16:44:50.128Z,99.90
2022-10-28T16:47:20.416Z,99.90
2022-10-28T16:49:54.370Z,99.90
2022-10-28T16:52:29.746Z,99.90
2022-10-28T16:54:57.842Z,99.90
2022-10-28T16:57:25.108Z,99.90
2022-10-28T16:59:52.091Z,99.90
2022-10-28T17:02:30.598Z,99.90
2022-10-28T17:04:58.967Z,99.90
2022-10-28T17:07:28.981Z,99.90
2022-10-28T17:09:56.673Z,99.90
2022-10-28T17:12:26.867Z,99.90
2022-10-28T17:14:53.941Z,99.90
2022-10-28T17:17:20.733Z,99.90
2022-10-28T17:19:47.664Z,99.90
2022-10-28T17:22:14.379Z,99.90
2022-10-28T17:24:41.145Z,99.90
2022-10-28T17:27:08.518Z,99.90
2022-10-28T17:29:35.595Z,99.90
2022-10-28T17:32:02.407Z,99.90
2022-10-28T17:34:29.375Z,99.90
2022-10-28T17:36:56.244Z,99.90
2022-10-28T17:39:26.229Z,99.90
2022-10-28T17:41:53.600Z,99.90
2022-10-28T17:44:20.499Z,99.90
2022-10-28T17:46:51.348Z,99.90
2022-10-28T17:49:18.844Z,99.90
2022-10-28T17:51:45.661Z,99.90
2022-10-28T17:54:12.451Z,99.90
2022-10-28T17:56:41.764Z,99.90
2022-10-28T17:59:09.273Z,99.90
2022-10-28T18:01:36.882Z,99.90
2022-10-28T18:04:05.345Z,99.90
2022-10-28T18:06:32.144Z,99.90
2022-10-28T18:08:58.875Z,99.90
2022-10-28T18:11:27.252Z,99.90
2022-10-28T18:13:55.819Z,99.90
2022-10-28T18:16:29.764Z,99.90
2022-10-28T18:18:56.517Z,99.90
2022-10-28T18:21:24.491Z,99.90
2022-10-28T18:23:52.916Z,99.90
2022-10-28T18:26:20.528Z,99.90
2022-10-28T18:28:48.798Z,99.90
2022-10-28T18:31:19.245Z,99.90
2022-10-28T18:33:47.209Z,99.90
2022-10-28T18:36:23.383Z,99.90
2022-10-28T18:38:51.541Z,99.90
2022-10-28T18:41:22.366Z,99.90
2022-10-28T18:43:57.699Z,99.90
2022-10-28T18:46:28.525Z,99.90
2022-10-28T18:48:58.271Z,99.90
2022-10-28T18:51:25.380Z,99.90
2022-10-28T18:53:52.448Z,99.90
2022-10-28T18:56:23.623Z,99.90
2022-10-28T18:58:52.174Z,99.90
2022-10-28T19:01:23.502Z,99.90
2022-10-28T19:03:59.899Z,99.90
2022-10-28T19:06:32.429Z,99.90
2022-10-28T19:09:03.765Z,99.90
2022-10-28T19:11:32.678Z,99.90
2022-10-28T19:14:02.740Z,99.90
2022-10-28T19:16:33.105Z,99.90
2022-10-28T19:19:02.063Z,99.90
2022-10-28T19:21:29.459Z,99.90
2022-10-28T19:23:56.377Z,99.90
2022-10-28T19:26:23.893Z,99.90
2022-10-28T19:28:51.935Z,99.90
2022-10-28T19:31:25.350Z,99.90
2022-10-28T19:33:54.186Z,99.90
2022-10-28T19:36:27.692Z,99.90
2022-10-28T19:38:56.870Z,99.90
2022-10-28T19:41:26.973Z,99.90
2022-10-28T19:44:03.747Z,99.90
2022-10-28T19:46:35.814Z,99.90
2022-10-28T19:49:05.647Z,99.90
2022-10-28T19:51:40.841Z,99.90
2022-10-28T19:54:13.088Z,99.90
2022-10-28T19:56:40.171Z,99.90
2022-10-28T19:59:07.235Z,99.90
2022-10-28T20:01:37.960Z,99.90
2022-10-28T20:04:05.194Z,99.90
2022-10-28T20:06:36.688Z,99.90
2022-10-28T20:09:05.040Z,99.90
2022-10-28T20:11:35.325Z,99.90
2022-10-28T20:14:08.177Z,99.90
2022-10-28T20:16:39.601Z,99.90
2022-10-28T20:19:06.408Z,99.90
2022-10-28T20:21:34.371Z,99.90
2022-10-28T20:24:06.813Z,99.90
2022-10-28T20:26:36.064Z,99.90
2022-10-28T20:29:03.769Z,99.90
2022-10-28T20:31:32.726Z,99.90
2022-10-28T20:34:03.668Z,99.90
2022-10-28T20:36:33.080Z,99.90
2022-10-28T20:39:04.394Z,99.90
2022-10-28T20:41:34.411Z,99.90
2022-10-28T20:44:02.589Z,99.90
2022-10-28T20:46:29.748Z,99.90
2022-10-28T20:48:57.102Z,99.90
2022-10-28T20:51:27.125Z,99.90
2022-10-28T20:53:54.460Z,99.90
2022-10-28T20:56:30.584Z,99.90
2022-10-28T20:58:58.347Z,99.90
2022-10-28T21:01:31.243Z,99.90
2022-10-28T21:04:03.028Z,99.90
2022-10-28T21:06:30.669Z,99.90
2022-10-28T21:08:58.391Z,99.90
2022-10-28T21:11:27.788Z,99.90
2022-10-28T21:13:57.924Z,99.90
2022-10-28T21:16:26.663Z,99.90
2022-10-28T21:18:53.730Z,99.90
2022-10-28T21:21:23.067Z,99.90
2022-10-28T21:23:50.092Z,99.90
2022-10-28T21:26:17.254Z,99.90
2022-10-28T21:28:45.171Z,99.90
2022-10-28T21:31:15.309Z,99.90
2022-10-28T21:33:43.151Z,99.90
2022-10-28T21:36:16.278Z,99.90
2022-10-28T21:38:43.384Z,99.90
2022-10-28T21:41:18.722Z,99.90
2022-10-28T21:43:48.741Z,99.90
2022-10-28T21:46:16.882Z,99.90
2022-10-28T21:48:43.865Z,99.90
2022-10-28T21:51:15.195Z,99.90
2022-10-28T21:53:44.295Z,99.90
2022-10-28T21:56:18.828Z,99.90
2022-10-28T21:58:48.396Z,99.90
2022-10-28T22:01:22.559Z,99.90
2022-10-28T22:03:51.272Z,99.90
2022-10-28T22:06:17.985Z,99.90
2022-10-28T22:08:44.853Z,99.90
2022-10-28T22:11:18.506Z,99.90
2022-10-28T22:13:46.027Z,99.90
2022-10-28T22:16:16.775Z,99.90
2022-10-28T22:18:44.916Z,99.90
2022-10-28T22:21:18.720Z,99.90
2022-10-28T22:23:45.819Z,99.90
2022-10-28T22:26:19.945Z,99.90
2022-10-28T22:28:47.550Z,99.90
2022-10-28T22:31:18.557Z,99.90
2022-10-28T22:36:16.395Z,99.90
2022-10-28T22:38:43.932Z,99.90
2022-10-28T22:41:30.553Z,99.90
2022-10-28T22:44:00.370Z,99.90
2022-10-28T22:46:30.730Z,99.90
2022-10-28T22:48:57.941Z,99.90
2022-10-28T22:51:24.974Z,99.90
2022-10-28T22:53:51.716Z,99.90
2022-10-28T22:56:22.523Z,99.90
2022-10-28T22:58:58.112Z,99.90
2022-10-28T23:01:26.500Z,99.90
2022-10-28T23:03:54.732Z,99.90
2022-10-28T23:06:25.267Z,99.90
2022-10-28T23:08:52.612Z,99.90
2022-10-28T23:11:21.638Z,99.90
2022-10-28T23:13:53.457Z,99.90
2022-10-28T23:16:21.148Z,99.90
2022-10-28T23:18:48.699Z,99.90
2022-10-28T23:21:23.352Z,99.90
2022-10-28T23:23:59.035Z,99.90
2022-10-28T23:26:28.487Z,99.90
2022-10-28T23:28:58.679Z,99.90
2022-10-28T23:31:26.827Z,99.90
2022-10-28T23:33:54.870Z,99.90
2022-10-28T23:36:22.254Z,99.90
2022-10-28T23:38:48.967Z,99.90
2022-10-28T23:41:18.709Z,99.90
2022-10-28T23:43:47.071Z,99.90
2022-10-28T23:46:13.986Z,99.90
2022-10-28T23:48:40.694Z,99.90
2022-10-28T23:51:07.471Z,99.90
2022-10-28T23:53:34.649Z,99.90
2022-10-28T23:56:01.439Z,99.90
2022-10-28T23:58:28.184Z,99.90
